N1068X KMVY-KBED
Flight info
| Callsign | N1068X |
|---|---|
| Flight time | 0h 36m |
| Altitude | 6000 |
| Route | KMVY MVY FREDO KBED |
| Aircraft | M20P/L-VGD/C |
Departure
| Time | 2026-04-30 00:32 |
|---|---|
| Airport | Martha's Vineyard Airport (KMVY) |
Arrival
| Time | 2026-04-30 01:09 |
|---|---|
| Airport | Laurence G Hanscom Field (KBED) |
| Time | Latitude | Longitude | Altitude | Speed | Heading |
|---|---|---|---|---|---|
| 2026-04-30 00:02 | 41.38953 | -70.61276 | 60 ft | 0 kts | 131° |
| 2026-04-30 00:19 | 41.38960 | -70.61270 | 60 ft | 1 kts | 282° |
| 2026-04-30 00:19 | 41.38941 | -70.61296 | 59 ft | 7 kts | 220° |
| 2026-04-30 00:19 | 41.38892 | -70.61331 | 60 ft | 10 kts | 205° |
| 2026-04-30 00:20 | 41.38836 | -70.61387 | 60 ft | 4 kts | 244° |
| 2026-04-30 00:20 | 41.38836 | -70.61410 | 56 ft | 0 kts | 288° |
| 2026-04-30 00:26 | 41.38842 | -70.61423 | 60 ft | 8 kts | 313° |
| 2026-04-30 00:27 | 41.38871 | -70.61503 | 57 ft | 11 kts | 228° |
| 2026-04-30 00:27 | 41.38803 | -70.61580 | 59 ft | 17 kts | 214° |
| 2026-04-30 00:27 | 41.38696 | -70.61706 | 57 ft | 21 kts | 224° |
| 2026-04-30 00:27 | 41.38617 | -70.61805 | 58 ft | 7 kts | 243° |
| 2026-04-30 00:28 | 41.38620 | -70.61851 | 58 ft | 0 kts | 294° |
| 2026-04-30 00:30 | 41.38621 | -70.61856 | 56 ft | 0 kts | 290° |
| 2026-04-30 00:31 | 41.38643 | -70.61884 | 58 ft | 12 kts | 314° |
| 2026-04-30 00:31 | 41.38704 | -70.61890 | 57 ft | 11 kts | 38° |
| 2026-04-30 00:31 | 41.38782 | -70.61803 | 56 ft | 31 kts | 43° |
| 2026-04-30 00:31 | 41.39060 | -70.61486 | 116 ft | 66 kts | 40° |
| 2026-04-30 00:32 | 41.39407 | -70.60981 | 314 ft | 78 kts | 48° |
| 2026-04-30 00:32 | 41.39788 | -70.60469 | 615 ft | 82 kts | 47° |
| 2026-04-30 00:32 | 41.40200 | -70.59937 | 1009 ft | 78 kts | 43° |
| 2026-04-30 00:32 | 41.40647 | -70.59458 | 1218 ft | 94 kts | 44° |
| 2026-04-30 00:33 | 41.41122 | -70.58850 | 1555 ft | 87 kts | 47° |
| 2026-04-30 00:33 | 41.41584 | -70.58319 | 1759 ft | 98 kts | 46° |
| 2026-04-30 00:33 | 41.42119 | -70.57709 | 2044 ft | 97 kts | 45° |
| 2026-04-30 00:33 | 41.42668 | -70.57070 | 2096 ft | 111 kts | 49° |
| 2026-04-30 00:34 | 41.43260 | -70.56313 | 2107 ft | 124 kts | 46° |
| 2026-04-30 00:34 | 41.43969 | -70.55538 | 2105 ft | 133 kts | 41° |
| 2026-04-30 00:34 | 41.44700 | -70.54835 | 2377 ft | 126 kts | 39° |
| 2026-04-30 00:34 | 41.45368 | -70.54058 | 2507 ft | 131 kts | 51° |
| 2026-04-30 00:35 | 41.45919 | -70.53105 | 2795 ft | 123 kts | 58° |
| 2026-04-30 00:35 | 41.46546 | -70.52343 | 3023 ft | 127 kts | 33° |
| 2026-04-30 00:35 | 41.47454 | -70.52078 | 3114 ft | 141 kts | 356° |
| 2026-04-30 00:35 | 41.48342 | -70.52305 | 3548 ft | 122 kts | 352° |
| 2026-04-30 00:36 | 41.49229 | -70.52508 | 3614 ft | 138 kts | 350° |
| 2026-04-30 00:36 | 41.50183 | -70.52720 | 3847 ft | 134 kts | 353° |
| 2026-04-30 00:36 | 41.51096 | -70.52913 | 4053 ft | 136 kts | 352° |
| 2026-04-30 00:36 | 41.52053 | -70.53189 | 4180 ft | 142 kts | 346° |
| 2026-04-30 00:37 | 41.53009 | -70.53456 | 4452 ft | 137 kts | 349° |
| 2026-04-30 00:37 | 41.53944 | -70.53626 | 4690 ft | 137 kts | 359° |
| 2026-04-30 00:37 | 41.54912 | -70.53711 | 4859 ft | 142 kts | 356° |
| 2026-04-30 00:37 | 41.55890 | -70.53793 | 5121 ft | 138 kts | 356° |
| 2026-04-30 00:38 | 41.56857 | -70.53886 | 5293 ft | 142 kts | 356° |
| 2026-04-30 00:38 | 41.57860 | -70.54021 | 5468 ft | 145 kts | 356° |
| 2026-04-30 00:38 | 41.58853 | -70.54137 | 5708 ft | 142 kts | 354° |
| 2026-04-30 00:38 | 41.59830 | -70.54295 | 5867 ft | 145 kts | 354° |
| 2026-04-30 00:39 | 41.60852 | -70.54384 | 6013 ft | 147 kts | 356° |
| 2026-04-30 00:39 | 41.61902 | -70.54452 | 6063 ft | 157 kts | 358° |
| 2026-04-30 00:39 | 41.63009 | -70.54584 | 6055 ft | 162 kts | 352° |
| 2026-04-30 00:39 | 41.64113 | -70.54872 | 6074 ft | 163 kts | 350° |
| 2026-04-30 00:40 | 41.65258 | -70.55013 | 6009 ft | 169 kts | 356° |
| 2026-04-30 00:40 | 41.66437 | -70.55152 | 5988 ft | 170 kts | 355° |
| 2026-04-30 00:40 | 41.67612 | -70.55293 | 6019 ft | 168 kts | 355° |
| 2026-04-30 00:40 | 41.68773 | -70.55435 | 6059 ft | 166 kts | 355° |
| 2026-04-30 00:41 | 41.69928 | -70.55580 | 6068 ft | 168 kts | 354° |
| 2026-04-30 00:41 | 41.71095 | -70.55729 | 6068 ft | 169 kts | 354° |
| 2026-04-30 00:41 | 41.72269 | -70.55879 | 6070 ft | 170 kts | 354° |
| 2026-04-30 00:41 | 41.73435 | -70.56028 | 6071 ft | 171 kts | 354° |
| 2026-04-30 00:42 | 41.74620 | -70.56179 | 6069 ft | 171 kts | 355° |
| 2026-04-30 00:42 | 41.75807 | -70.56331 | 6071 ft | 171 kts | 354° |
| 2026-04-30 00:42 | 41.76995 | -70.56483 | 6068 ft | 171 kts | 355° |
| 2026-04-30 00:42 | 41.78187 | -70.56635 | 6067 ft | 172 kts | 355° |
| 2026-04-30 00:43 | 41.79376 | -70.56788 | 6072 ft | 172 kts | 355° |
| 2026-04-30 00:43 | 41.80570 | -70.56941 | 6068 ft | 172 kts | 355° |
| 2026-04-30 00:43 | 41.81762 | -70.57093 | 6063 ft | 172 kts | 355° |
| 2026-04-30 00:43 | 41.82554 | -70.57195 | 6057 ft | 172 kts | 355° |
| 2026-04-30 00:44 | 41.83746 | -70.57348 | 6056 ft | 172 kts | 354° |
| 2026-04-30 00:44 | 41.85333 | -70.57551 | 6058 ft | 172 kts | 354° |
| 2026-04-30 00:44 | 41.86137 | -70.57655 | 6056 ft | 172 kts | 355° |
| 2026-04-30 00:44 | 41.87317 | -70.57806 | 6052 ft | 172 kts | 355° |
| 2026-04-30 00:45 | 41.88510 | -70.57959 | 6055 ft | 172 kts | 354° |
| 2026-04-30 00:45 | 41.90102 | -70.58200 | 6054 ft | 172 kts | 346° |
| 2026-04-30 00:45 | 41.90825 | -70.58617 | 6051 ft | 171 kts | 326° |
| 2026-04-30 00:45 | 41.91711 | -70.59634 | 6048 ft | 169 kts | 314° |
| 2026-04-30 00:46 | 41.92578 | -70.60714 | 6053 ft | 170 kts | 315° |
| 2026-04-30 00:46 | 41.93459 | -70.61803 | 6052 ft | 170 kts | 315° |
| 2026-04-30 00:46 | 41.94316 | -70.62862 | 6051 ft | 169 kts | 315° |
| 2026-04-30 00:46 | 41.95173 | -70.63923 | 6054 ft | 169 kts | 315° |
| 2026-04-30 00:47 | 41.96039 | -70.64997 | 6054 ft | 169 kts | 315° |
| 2026-04-30 00:47 | 41.96903 | -70.66069 | 6057 ft | 169 kts | 315° |
| 2026-04-30 00:47 | 41.97768 | -70.67141 | 6053 ft | 169 kts | 315° |
| 2026-04-30 00:47 | 41.98630 | -70.68211 | 6055 ft | 169 kts | 315° |
| 2026-04-30 00:48 | 41.99485 | -70.69273 | 6054 ft | 169 kts | 315° |
| 2026-04-30 00:48 | 42.00350 | -70.70346 | 6055 ft | 169 kts | 315° |
| 2026-04-30 00:48 | 42.01211 | -70.71416 | 6075 ft | 168 kts | 315° |
| 2026-04-30 00:48 | 42.02072 | -70.72487 | 6076 ft | 168 kts | 315° |
| 2026-04-30 00:49 | 42.02934 | -70.73558 | 6075 ft | 168 kts | 315° |
| 2026-04-30 00:49 | 42.03790 | -70.74623 | 6041 ft | 170 kts | 315° |
| 2026-04-30 00:49 | 42.04657 | -70.75702 | 6041 ft | 170 kts | 315° |
| 2026-04-30 00:49 | 42.05524 | -70.76780 | 6043 ft | 169 kts | 315° |
| 2026-04-30 00:50 | 42.06389 | -70.77858 | 6043 ft | 169 kts | 315° |
| 2026-04-30 00:50 | 42.07249 | -70.78929 | 6047 ft | 168 kts | 315° |
| 2026-04-30 00:50 | 42.08107 | -70.79999 | 6046 ft | 168 kts | 315° |
| 2026-04-30 00:50 | 42.08966 | -70.81069 | 6048 ft | 168 kts | 315° |
| 2026-04-30 00:51 | 42.09813 | -70.82125 | 6046 ft | 168 kts | 315° |
| 2026-04-30 00:51 | 42.10669 | -70.83194 | 6046 ft | 168 kts | 315° |
| 2026-04-30 00:51 | 42.11525 | -70.84262 | 6047 ft | 168 kts | 315° |
| 2026-04-30 00:51 | 42.12385 | -70.85336 | 6049 ft | 168 kts | 315° |
| 2026-04-30 00:52 | 42.13241 | -70.86405 | 6049 ft | 168 kts | 315° |
| 2026-04-30 00:52 | 42.14099 | -70.87477 | 6049 ft | 168 kts | 315° |
| 2026-04-30 00:52 | 42.14956 | -70.88549 | 6051 ft | 168 kts | 315° |
| 2026-04-30 00:52 | 42.15815 | -70.89623 | 6051 ft | 168 kts | 315° |
| 2026-04-30 00:53 | 42.16676 | -70.90700 | 6049 ft | 168 kts | 315° |
| 2026-04-30 00:53 | 42.17535 | -70.91775 | 6058 ft | 168 kts | 315° |
| 2026-04-30 00:53 | 42.18390 | -70.92851 | 6059 ft | 168 kts | 313° |
| 2026-04-30 00:53 | 42.18947 | -70.94192 | 6052 ft | 164 kts | 286° |
| 2026-04-30 00:54 | 42.19305 | -70.95632 | 6052 ft | 164 kts | 285° |
| 2026-04-30 00:54 | 42.19673 | -70.97100 | 6054 ft | 165 kts | 286° |
| 2026-04-30 00:54 | 42.20036 | -70.98561 | 6058 ft | 165 kts | 286° |
| 2026-04-30 00:54 | 42.20402 | -71.00032 | 6054 ft | 165 kts | 286° |
| 2026-04-30 00:55 | 42.20765 | -71.01494 | 6057 ft | 165 kts | 286° |
| 2026-04-30 00:55 | 42.21134 | -71.02972 | 6061 ft | 165 kts | 286° |
| 2026-04-30 00:55 | 42.21868 | -71.05913 | 6058 ft | 166 kts | 286° |
| 2026-04-30 00:56 | 42.22236 | -71.07390 | 6063 ft | 166 kts | 286° |
| 2026-04-30 00:56 | 42.22597 | -71.08841 | 6060 ft | 166 kts | 286° |
| 2026-04-30 00:56 | 42.22965 | -71.10315 | 6062 ft | 166 kts | 286° |
| 2026-04-30 00:56 | 42.23330 | -71.11788 | 6062 ft | 166 kts | 286° |
| 2026-04-30 00:57 | 42.23696 | -71.13258 | 6060 ft | 165 kts | 286° |
| 2026-04-30 00:57 | 42.24066 | -71.14739 | 6025 ft | 168 kts | 286° |
| 2026-04-30 00:57 | 42.24441 | -71.16248 | 5895 ft | 169 kts | 286° |
| 2026-04-30 00:57 | 42.24812 | -71.17750 | 5765 ft | 168 kts | 286° |
| 2026-04-30 00:58 | 42.25179 | -71.19248 | 5640 ft | 168 kts | 286° |
| 2026-04-30 00:58 | 42.25540 | -71.20732 | 5513 ft | 168 kts | 286° |
| 2026-04-30 00:58 | 42.25903 | -71.22231 | 5388 ft | 168 kts | 286° |
| 2026-04-30 00:58 | 42.26265 | -71.23732 | 5256 ft | 167 kts | 286° |
| 2026-04-30 00:59 | 42.26626 | -71.25228 | 5129 ft | 168 kts | 286° |
| 2026-04-30 00:59 | 42.26984 | -71.26726 | 5009 ft | 168 kts | 286° |
| 2026-04-30 00:59 | 42.27342 | -71.28230 | 4884 ft | 168 kts | 286° |
| 2026-04-30 00:59 | 42.27697 | -71.29737 | 4758 ft | 169 kts | 286° |
| 2026-04-30 01:00 | 42.28054 | -71.31247 | 4634 ft | 169 kts | 286° |
| 2026-04-30 01:00 | 42.28415 | -71.32765 | 4498 ft | 169 kts | 288° |
| 2026-04-30 01:00 | 42.29125 | -71.33972 | 4357 ft | 170 kts | 330° |
| 2026-04-30 01:00 | 42.30229 | -71.34511 | 4229 ft | 169 kts | 344° |
| 2026-04-30 01:01 | 42.31355 | -71.34974 | 4110 ft | 169 kts | 344° |
| 2026-04-30 01:01 | 42.32483 | -71.35440 | 3984 ft | 170 kts | 344° |
| 2026-04-30 01:01 | 42.33605 | -71.35903 | 3855 ft | 168 kts | 344° |
| 2026-04-30 01:01 | 42.34716 | -71.36362 | 3723 ft | 166 kts | 344° |
| 2026-04-30 01:02 | 42.35817 | -71.36815 | 3601 ft | 165 kts | 344° |
| 2026-04-30 01:02 | 42.36916 | -71.37264 | 3472 ft | 164 kts | 344° |
| 2026-04-30 01:02 | 42.38006 | -71.37709 | 3342 ft | 164 kts | 344° |
| 2026-04-30 01:02 | 42.39095 | -71.38154 | 3211 ft | 163 kts | 344° |
| 2026-04-30 01:03 | 42.40181 | -71.38597 | 3082 ft | 162 kts | 344° |
| 2026-04-30 01:03 | 42.41235 | -71.39141 | 2958 ft | 162 kts | 336° |
| 2026-04-30 01:03 | 42.42265 | -71.39778 | 2820 ft | 163 kts | 336° |
| 2026-04-30 01:03 | 42.43345 | -71.40445 | 2426 ft | 177 kts | 336° |
| 2026-04-30 01:04 | 42.44465 | -71.41156 | 2039 ft | 183 kts | 336° |
| 2026-04-30 01:04 | 42.45565 | -71.41886 | 1989 ft | 168 kts | 335° |
| 2026-04-30 01:04 | 42.46494 | -71.42580 | 2336 ft | 134 kts | 329° |
| 2026-04-30 01:04 | 42.47249 | -71.43313 | 2356 ft | 138 kts | 323° |
| 2026-04-30 01:05 | 42.48111 | -71.43844 | 2349 ft | 137 kts | 354° |
| 2026-04-30 01:05 | 42.49018 | -71.43601 | 2304 ft | 133 kts | 38° |
| 2026-04-30 01:05 | 42.49612 | -71.42629 | 2200 ft | 134 kts | 67° |
| 2026-04-30 01:05 | 42.49825 | -71.41371 | 1877 ft | 145 kts | 98° |
| 2026-04-30 01:06 | 42.49388 | -71.40182 | 1777 ft | 140 kts | 127° |
| 2026-04-30 01:06 | 42.48735 | -71.39241 | 1619 ft | 127 kts | 133° |
| 2026-04-30 01:06 | 42.48181 | -71.38471 | 1552 ft | 103 kts | 125° |
| 2026-04-30 01:06 | 42.47868 | -71.37647 | 1419 ft | 98 kts | 107° |
| 2026-04-30 01:07 | 42.47757 | -71.36752 | 1214 ft | 96 kts | 92° |
| 2026-04-30 01:07 | 42.47728 | -71.35853 | 1049 ft | 95 kts | 92° |
| 2026-04-30 01:07 | 42.47648 | -71.34973 | 888 ft | 94 kts | 99° |
| 2026-04-30 01:07 | 42.47548 | -71.34143 | 792 ft | 87 kts | 94° |
| 2026-04-30 01:08 | 42.47479 | -71.33309 | 664 ft | 91 kts | 98° |
| 2026-04-30 01:08 | 42.47421 | -71.32441 | 541 ft | 94 kts | 91° |
| 2026-04-30 01:08 | 42.47346 | -71.31593 | 444 ft | 87 kts | 98° |
| 2026-04-30 01:08 | 42.47255 | -71.30805 | 334 ft | 79 kts | 93° |
| 2026-04-30 01:09 | 42.47199 | -71.30145 | 213 ft | 64 kts | 92° |
| 2026-04-30 01:09 | 42.47141 | -71.29621 | 141 ft | 47 kts | 91° |
| 2026-04-30 01:09 | 42.47111 | -71.29241 | 133 ft | 36 kts | 97° |
| 2026-04-30 01:09 | 42.47082 | -71.28939 | 127 ft | 20 kts | 96° |
| 2026-04-30 01:10 | 42.47066 | -71.28777 | 129 ft | 16 kts | 104° |
| 2026-04-30 01:10 | 42.47053 | -71.28622 | 129 ft | 18 kts | 98° |
| 2026-04-30 01:10 | 42.46986 | -71.28580 | 130 ft | 13 kts | 217° |
| 2026-04-30 01:10 | 42.46957 | -71.28611 | 130 ft | 0 kts | 218° |
| 2026-04-30 01:11 | 42.46955 | -71.28612 | 130 ft | 3 kts | 216° |
| 2026-04-30 01:12 | 42.46899 | -71.28670 | 130 ft | 15 kts | 216° |
| 2026-04-30 01:12 | 42.46812 | -71.28705 | 133 ft | 12 kts | 208° |
| 2026-04-30 01:12 | 42.46742 | -71.28792 | 134 ft | 17 kts | 218° |
| 2026-04-30 01:12 | 42.46640 | -71.28895 | 134 ft | 20 kts | 215° |
| 2026-04-30 01:13 | 42.46534 | -71.28996 | 133 ft | 15 kts | 191° |
| 2026-04-30 01:13 | 42.46426 | -71.29024 | 132 ft | 12 kts | 194° |
| 2026-04-30 01:13 | 42.46388 | -71.29085 | 132 ft | 7 kts | 322° |
| 2026-04-30 01:13 | 42.46422 | -71.29101 | 132 ft | 0 kts | 2° |
| 2026-04-30 01:14 | 42.46424 | -71.29101 | 132 ft | 0 kts | 355° |